KSSC METAR and TAF | Updated Today

KSSC METAR

Shaw Air Force Base

Observation time: 33 min. ago

KSSC 260156Z AUTO 17005KT 10SM CLR 26/17 A3011 RMK AO2 SLP195 T02630168 $

Need help? Read our tutorial on how to read METARs or read the parsed version below.

Shaw Air Force Base (KSSC) METAR

  • Weather conditions on Sun, 26 Jun 2022 01:56:00 +0000 (33 min. ago):
  • Present conditions: Dry
  • Clouds: Clear skies
  • Visibility: 16093 meters
  • Wind: 170 degrees at 5 knots
  • Temperature: 26 celsius
  • Dew point: 17 celsius
  • Pressure: 30.11 inHg
  • Remarks: AO2 SLP195 T02630168 $


Useful to know...

KSSC TAF

Shaw Air Force Base

TAF KSSC 252300Z 2523/2705 10006KT 9999 SKC QNH3003INS BECMG 2612/2613 12006KT 9999 FEW055 QNH3004INS TX34/2620Z TN19/2610Z LAST NO AMDS AFT 2523 NEXT 2607
Observation time: 3:29 hr. ago
Need help? Read our tutorial on how to read TAFs or read the parsed version below.

Parsed version of TAF for Shaw Air Force Base (KSSC)

  • From 25 June at 23:00 UTC, to day 27 of the month at 05:00 UTC
  • Clouds: No significant changes expected
  • Visibility: Greater than 10 km
  • Wind: 100 degrees at 6
  • Expected to arise soon, from 26 June at 12:00 UTC, to day 26 of the month at 13:00 UTC
  • Clouds: A few at 1676 meters
  • Visibility: Greater than 10 km
  • Wind: 120 degrees at 6